Startpagina
METAR-TAF:

METAR-TAF

Vliegvelden :

Prince Rupert, Brits Columbia, Canada

breedte: 54-18N, lengte: 130-26W, hoogte: 34 m

Actueel weer

Dit bericht is 25 minuten geleden gemaakt, om 20:00 UTC
Wind 9 kt uit het noordnoordwesten met uitschieters tot 18 kt, variërend tussen het westnoordwesten en het noorden
Temperatuur 7°C
Vochtigheid 61%
Druk 1025 hPa
Zicht: 14.5 km
Onbewolkt

METAR: CYPR 102000Z AUTO 33009G18KT 290V350 9SM CLR 07/M00 A3026 RMK SLP251

Tijdstip: 13:25 (20:25 UTC)

Verwachting

Dit bericht is 1 uur en het 47 minuten geleden gemaakt, om 18:38 UTC
Verwachting geldig van 10 om 19 UTC tot 11 om 07 UTC
Wind 10 kt uit het noordnoordwesten met uitschieters tot 20 kt
Zicht: 10 km
Onbewolkt
Wijzigt naar
van 11 om 02 UTC tot 11 om 04 UTC
Wind 8 kt uit het noorden

TAF: CYPR 101838Z 1019/1107 33010G20KT P6SM SKC BECMG 1102/1104 35008KT RMK FCST BASED ON AUTO OBS. NXT FCST BY 110100Z

Waarnemingen en weersverwachtingen van meer dan 4000 vliegvelden (METAR en TAF).

De beschikbare stations zijn de gele en rode punten op de kaart.

Ga met uw muis naar het station om de naam te zien.

Klik dan om waarnemingen en weersverwachtingen te zien.

kaart wijzigen: klik op de groene knoppen met een zwart kruis om in te zoomen, op de groene knop met een streepje om uit te zoomen of op de groene pijlen voor aangrenzende kaarten.


METAR-TAF: